createdAt,value
2023-04-03T00:00:58.591Z,99111.69
2023-04-03T00:06:01.529Z,99107.16
2023-04-03T00:11:04.330Z,99101.81
2023-04-03T00:16:07.778Z,99112.25
2023-04-03T00:21:13.180Z,99115.28
2023-04-03T00:26:15.518Z,99109.47
2023-04-03T00:31:17.983Z,99111.69
2023-04-03T00:36:20.254Z,99112.75
2023-04-03T00:41:22.628Z,99107.25
2023-04-03T00:46:24.757Z,99102.50
2023-04-03T00:51:28.035Z,99108.44
2023-04-03T00:56:31.358Z,99108.16
2023-04-03T01:01:34.118Z,99103.91
2023-04-03T01:06:38.225Z,99091.91
2023-04-03T01:11:43.034Z,99116.16
2023-04-03T01:16:56.476Z,99114.78
2023-04-03T01:22:24.764Z,99113.03
2023-04-03T01:27:27.146Z,99107.50
2023-04-03T01:32:29.446Z,99111.34
2023-04-03T01:37:32.027Z,99106.69
2023-04-03T01:42:34.581Z,99104.41
2023-04-03T01:47:36.804Z,99114.81
2023-04-03T01:52:38.989Z,99119.47
2023-04-03T01:57:41.141Z,99111.91
2023-04-03T02:02:43.844Z,99113.09
2023-04-03T02:07:46.537Z,99110.44
2023-04-03T02:12:48.616Z,99113.53
2023-04-03T02:17:50.856Z,99114.53
2023-04-03T02:22:52.979Z,99118.66
2023-04-03T02:27:55.071Z,99114.53
2023-04-03T02:32:57.206Z,99115.91
2023-04-03T02:38:01.180Z,99116.81
2023-04-03T02:43:03.515Z,99119.56
2023-04-03T02:48:06.373Z,99118.75
2023-04-03T02:53:08.587Z,99099.03
2023-04-03T02:58:10.894Z,99127.06
2023-04-03T03:03:14.726Z,99125.78
2023-04-03T03:08:16.989Z,99124.50
2023-04-03T03:13:19.140Z,99126.88
2023-04-03T03:18:22.000Z,99127.72
2023-04-03T03:23:27.257Z,99104.50
2023-04-03T03:28:29.636Z,99133.38
2023-04-03T03:33:31.949Z,99135.38
2023-04-03T03:38:35.476Z,99142.78
2023-04-03T03:43:38.193Z,99140.41
2023-04-03T03:48:42.054Z,99146.00
2023-04-03T03:53:44.296Z,99139.41
2023-04-03T03:58:50.850Z,99144.72
2023-04-03T04:03:55.169Z,99134.94
2023-04-03T04:09:01.753Z,99140.47
2023-04-03T04:14:05.904Z,99138.69
2023-04-03T04:19:08.949Z,99145.38
2023-04-03T04:24:12.702Z,99146.50
2023-04-03T04:29:15.585Z,99141.47
2023-04-03T04:34:19.952Z,99147.84
2023-04-03T04:39:23.262Z,99157.38
2023-04-03T04:44:26.312Z,99160.97
2023-04-03T04:49:28.740Z,99152.97
2023-04-03T04:54:30.915Z,99171.59
2023-04-03T04:59:33.894Z,99158.25
2023-04-03T05:04:37.004Z,99170.53
2023-04-03T05:09:44.898Z,99166.09
2023-04-03T05:14:49.019Z,99168.44
2023-04-03T05:19:51.960Z,99166.41
2023-04-03T05:24:56.507Z,99160.25
2023-04-03T05:29:59.338Z,99155.03
2023-04-03T05:35:01.910Z,99159.19
2023-04-03T05:40:07.098Z,99167.38
2023-04-03T05:45:10.506Z,99167.13
2023-04-03T05:50:13.173Z,99166.72
2023-04-03T05:55:15.490Z,99164.31
2023-04-03T06:00:18.107Z,99170.28
2023-04-03T06:05:29.784Z,99176.22
2023-04-03T06:10:32.052Z,99186.47
2023-04-03T06:15:34.886Z,99187.03
2023-04-03T06:20:37.348Z,99203.16
2023-04-03T06:25:39.714Z,99196.19
2023-04-03T06:30:41.841Z,99202.97
2023-04-03T06:35:44.309Z,99206.28
2023-04-03T06:40:46.899Z,99197.94
2023-04-03T06:45:49.006Z,99195.09
2023-04-03T06:50:51.203Z,99198.72
2023-04-03T06:55:53.364Z,99198.09
2023-04-03T07:00:55.807Z,99200.72
2023-04-03T07:05:57.909Z,99190.34
2023-04-03T07:11:00.122Z,99201.75
2023-04-03T07:16:03.218Z,99205.28
2023-04-03T07:21:05.696Z,99207.53
2023-04-03T07:26:09.202Z,99207.72
2023-04-03T07:31:17.973Z,99206.88
2023-04-03T07:36:23.027Z,99210.50
2023-04-03T07:41:25.378Z,99210.66
2023-04-03T07:46:28.125Z,99211.78
2023-04-03T07:51:31.000Z,99214.09
2023-04-03T07:56:33.389Z,99205.88
2023-04-03T08:01:35.722Z,99213.22
2023-04-03T08:06:46.278Z,99205.25
2023-04-03T08:11:49.241Z,99205.56
2023-04-03T08:16:51.600Z,99212.88
2023-04-03T08:21:58.766Z,99204.63
2023-04-03T08:27:02.018Z,99211.59
2023-04-03T08:32:06.579Z,99212.13
2023-04-03T08:37:08.718Z,99210.66
2023-04-03T08:42:41.600Z,99216.25
2023-04-03T08:48:08.604Z,99212.13
2023-04-03T08:53:17.000Z,99214.13
2023-04-03T08:58:29.242Z,99216.84
2023-04-03T09:03:34.266Z,99223.03
2023-04-03T09:08:59.437Z,99232.72
2023-04-03T09:14:02.346Z,99226.81
2023-04-03T09:19:37.407Z,99233.75
2023-04-03T09:24:39.822Z,99228.03
2023-04-03T09:29:44.670Z,99241.44
2023-04-03T09:34:48.537Z,99244.66
2023-04-03T09:39:55.320Z,99234.56
2023-04-03T09:45:03.899Z,99240.41
2023-04-03T09:50:15.251Z,99238.38
2023-04-03T09:55:22.216Z,99242.16
2023-04-03T10:00:28.164Z,99253.09
2023-04-03T10:05:32.958Z,99241.31
2023-04-03T10:10:35.777Z,99251.13
2023-04-03T10:15:47.577Z,99247.44
2023-04-03T10:20:53.207Z,99249.38
2023-04-03T10:26:12.685Z,99250.97
2023-04-03T10:31:26.618Z,99257.63
2023-04-03T10:36:55.599Z,99259.75
2023-04-03T10:42:31.572Z,99254.16
2023-04-03T10:48:08.846Z,99266.28
2023-04-03T10:53:33.821Z,99263.03
2023-04-03T10:58:40.464Z,99263.75
2023-04-03T11:03:47.374Z,99266.00
2023-04-03T11:08:58.389Z,99240.66
2023-04-03T11:14:06.673Z,99237.75
2023-04-03T11:19:22.541Z,99255.03
2023-04-03T11:24:28.966Z,99250.47
2023-04-03T11:29:37.616Z,99245.81
2023-04-03T11:34:47.406Z,99249.28
2023-04-03T11:40:02.115Z,99251.50
2023-04-03T11:45:27.840Z,99252.91
2023-04-03T11:50:36.169Z,99242.97
2023-04-03T11:55:51.969Z,99233.28
2023-04-03T12:01:30.711Z,99251.28
2023-04-03T12:06:36.977Z,99251.94
2023-04-03T12:11:39.357Z,99244.38
2023-04-03T12:16:41.731Z,99247.06
2023-04-03T12:21:47.515Z,99255.66
2023-04-03T12:26:52.776Z,99255.06
2023-04-03T12:32:25.454Z,99257.81
2023-04-03T12:37:36.657Z,99249.44
2023-04-03T12:43:00.552Z,99257.88
2023-04-03T12:48:05.898Z,99258.28
2023-04-03T12:53:15.139Z,99250.34
2023-04-03T12:58:23.662Z,99249.53
2023-04-03T13:03:30.557Z,99259.88
2023-04-03T13:08:33.469Z,99258.56
2023-04-03T13:13:35.673Z,99261.78
2023-04-03T13:18:38.895Z,99263.44
2023-04-03T13:23:44.516Z,99274.16
2023-04-03T13:28:48.295Z,99265.59
2023-04-03T13:34:08.810Z,99269.38
2023-04-03T13:39:13.921Z,99267.44
2023-04-03T13:44:25.718Z,99270.50
2023-04-03T13:49:29.578Z,99266.13
2023-04-03T13:54:39.017Z,99263.25
2023-04-03T13:59:41.304Z,99265.16
2023-04-03T14:04:43.432Z,99270.72
2023-04-03T14:09:45.647Z,99273.59
2023-04-03T14:14:47.856Z,99269.09
2023-04-03T14:19:52.451Z,99270.34
2023-04-03T14:24:54.527Z,99272.47
2023-04-03T14:29:58.673Z,99276.56
2023-04-03T14:35:01.638Z,99277.13
2023-04-03T14:40:06.465Z,99280.22
2023-04-03T14:45:12.585Z,99288.44
2023-04-03T14:50:25.206Z,99285.81
2023-04-03T14:55:28.781Z,99283.16
2023-04-03T15:00:31.182Z,99283.38
2023-04-03T15:05:33.243Z,99281.72
2023-04-03T15:10:35.498Z,99280.69
2023-04-03T15:15:38.220Z,99279.66
2023-04-03T15:20:40.675Z,99279.88
2023-04-03T15:25:49.173Z,99289.25
2023-04-03T15:30:51.488Z,99290.97
2023-04-03T15:35:55.839Z,99283.97
2023-04-03T15:40:58.384Z,99272.72
2023-04-03T15:46:01.457Z,99289.19
2023-04-03T15:51:03.870Z,99288.19
2023-04-03T15:56:06.189Z,99297.22
2023-04-03T16:01:12.354Z,99297.63
2023-04-03T16:06:16.728Z,99295.38
2023-04-03T16:11:18.910Z,99294.13
2023-04-03T16:16:21.315Z,99303.56
2023-04-03T16:21:25.537Z,99307.91
2023-04-03T16:26:28.004Z,99314.28
2023-04-03T16:31:30.358Z,99316.72
2023-04-03T16:36:32.622Z,99316.94
2023-04-03T16:41:34.743Z,99319.78
2023-04-03T16:46:36.870Z,99328.81
2023-04-03T16:51:38.996Z,99335.16
2023-04-03T16:56:41.394Z,99334.97
2023-04-03T17:01:43.640Z,99345.81
2023-04-03T17:06:46.145Z,99348.69
2023-04-03T17:11:49.437Z,99349.50
2023-04-03T17:16:52.312Z,99349.47
2023-04-03T17:21:54.510Z,99356.22
2023-04-03T17:26:56.645Z,99365.44
2023-04-03T17:31:58.843Z,99356.59
2023-04-03T17:37:01.178Z,99369.47
2023-04-03T17:42:03.617Z,99364.91
2023-04-03T17:47:05.885Z,99369.19
2023-04-03T17:52:07.998Z,99357.03
2023-04-03T17:57:10.166Z,99362.09
2023-04-03T18:02:12.326Z,99354.69
2023-04-03T18:07:14.556Z,99359.53
2023-04-03T18:12:16.797Z,99358.06
2023-04-03T18:17:19.614Z,99341.59
2023-04-03T18:22:24.392Z,99353.06
2023-04-03T18:27:27.714Z,99355.50
2023-04-03T18:32:29.825Z,99356.09
2023-04-03T18:37:32.087Z,99328.75
2023-04-03T18:42:34.491Z,99355.66
2023-04-03T18:47:37.092Z,99357.03
2023-04-03T18:52:39.516Z,99364.00
2023-04-03T18:57:41.636Z,99361.09
2023-04-03T19:02:45.155Z,99368.22
2023-04-03T19:07:48.575Z,99359.16
2023-04-03T19:12:51.569Z,99362.41
2023-04-03T19:17:53.833Z,99351.72
2023-04-03T19:22:56.019Z,99348.38
2023-04-03T19:27:58.235Z,99340.13
2023-04-03T19:33:00.553Z,99353.19
2023-04-03T19:38:02.689Z,99348.25
2023-04-03T19:43:05.053Z,99339.84
2023-04-03T19:48:08.008Z,99342.22
2023-04-03T19:53:11.865Z,99334.44
2023-04-03T19:58:14.191Z,99336.66
2023-04-03T20:03:16.446Z,99340.72
2023-04-03T20:08:19.367Z,99338.31
2023-04-03T20:13:21.834Z,99328.88
2023-04-03T20:18:24.236Z,99321.09
2023-04-03T20:23:27.408Z,99333.16
2023-04-03T20:28:29.627Z,99299.41
2023-04-03T20:33:32.122Z,99315.69
2023-04-03T20:38:34.243Z,99318.34
2023-04-03T20:43:38.388Z,99307.28
2023-04-03T20:48:41.637Z,99298.66
2023-04-03T20:53:44.479Z,99303.97
2023-04-03T20:58:47.716Z,99298.59
2023-04-03T21:03:52.609Z,99293.69
2023-04-03T21:09:32.043Z,99297.09
2023-04-03T21:15:14.831Z,99298.47
2023-04-03T21:20:17.032Z,99288.63
2023-04-03T21:25:19.090Z,99300.53
2023-04-03T21:30:21.682Z,99301.91
2023-04-03T21:35:23.831Z,99297.97
2023-04-03T21:40:26.835Z,99293.44
2023-04-03T21:45:29.691Z,99293.63
2023-04-03T21:50:32.823Z,99301.13
2023-04-03T21:55:34.932Z,99299.22
2023-04-03T22:00:37.483Z,99285.41
2023-04-03T22:05:39.679Z,99292.28
2023-04-03T22:10:41.852Z,99292.19
2023-04-03T22:15:47.493Z,99293.84
2023-04-03T22:20:49.625Z,99293.22
2023-04-03T22:26:02.064Z,99288.00
2023-04-03T22:31:08.620Z,99288.81
2023-04-03T22:36:12.801Z,99281.06
2023-04-03T22:41:14.904Z,99273.38
2023-04-03T22:46:17.093Z,99246.75
2023-04-03T22:51:19.178Z,99266.41
2023-04-03T22:56:23.938Z,99268.13
2023-04-03T23:01:27.704Z,99264.38
2023-04-03T23:06:29.774Z,99257.97
2023-04-03T23:11:31.707Z,99260.84
2023-04-03T23:16:33.802Z,99258.13
2023-04-03T23:21:36.489Z,99260.22
2023-04-03T23:26:38.635Z,99258.31
2023-04-03T23:31:40.693Z,99266.44
2023-04-03T23:36:43.208Z,99236.88
2023-04-03T23:41:45.531Z,99254.25
2023-04-03T23:46:47.743Z,99258.38
2023-04-03T23:51:49.854Z,99240.00
2023-04-03T23:56:51.934Z,99245.31
